Papalote, Texas
Current Conditions -  °F | °C
As of 2:51 PM on Friday 31 Oct 2014 (Local Time) from KCRP Reporting Station
Broken Clouds Broken Clouds  
Wind Chill: 79°   Ceiling: 25000
Heat Index: 79°   Visibility: 10mi
Dew Point: 54°   Wind: 10mph
Humidity: 42%   Direction: 50°NE
Pressure: 30.16"   Gusts: NA
Location:  28.0577°N, 97.5365°W
Report Text: KCRP 311951Z 05009KT 10SM FEW070 FEW140 BKN250 26/12 A3016 RMK AO2 SLP211 T02610122
Loading
Personal Weather Stations






























Interactive Weather Map
Tropical Storm Tracking
New forecast layout! Learn more

10-Day Weather Forecast

Advertisements
Track Severe Weather on mobile